sensor_id;sensor_type;location;lat;lon;timestamp;temperature;humidity
47514;DHT22;33951;51.988;5.910;2023-03-01T00:01:15;2.10;99.90
47514;DHT22;33951;51.988;5.910;2023-03-01T00:03:42;2.00;99.90
47514;DHT22;33951;51.988;5.910;2023-03-01T00:06:08;2.10;99.90
47514;DHT22;33951;51.988;5.910;2023-03-01T00:08:36;2.10;99.90
47514;DHT22;33951;51.988;5.910;2023-03-01T00:13:34;2.20;99.90
47514;DHT22;33951;51.988;5.910;2023-03-01T00:16:05;2.10;99.90
47514;DHT22;33951;51.988;5.910;2023-03-01T00:18:31;2.00;99.90
47514;DHT22;33951;51.988;5.910;2023-03-01T00:20:57;2.10;99.90
47514;DHT22;33951;51.988;5.910;2023-03-01T00:23:23;2.00;99.90
47514;DHT22;33951;51.988;5.910;2023-03-01T00:25:49;2.10;99.90
47514;DHT22;33951;51.988;5.910;2023-03-01T00:28:15;2.10;99.90
47514;DHT22;33951;51.988;5.910;2023-03-01T00:30:41;2.00;99.90
47514;DHT22;33951;51.988;5.910;2023-03-01T00:33:07;1.90;99.90
47514;DHT22;33951;51.988;5.910;2023-03-01T00:35:34;1.90;99.90
47514;DHT22;33951;51.988;5.910;2023-03-01T00:38:00;1.90;99.90
47514;DHT22;33951;51.988;5.910;2023-03-01T00:40:31;1.90;99.90
47514;DHT22;33951;51.988;5.910;2023-03-01T00:42:57;1.90;99.90
47514;DHT22;33951;51.988;5.910;2023-03-01T00:45:25;1.80;99.90
47514;DHT22;33951;51.988;5.910;2023-03-01T00:47:51;1.80;99.90
47514;DHT22;33951;51.988;5.910;2023-03-01T00:50:17;1.90;99.90
47514;DHT22;33951;51.988;5.910;2023-03-01T00:52:43;2.00;99.90
47514;DHT22;33951;51.988;5.910;2023-03-01T00:55:09;1.90;99.90
47514;DHT22;33951;51.988;5.910;2023-03-01T00:57:36;1.80;99.90
47514;DHT22;33951;51.988;5.910;2023-03-01T01:00:02;1.70;99.90
47514;DHT22;33951;51.988;5.910;2023-03-01T05:15:03;0.70;99.90
47514;DHT22;33951;51.988;5.910;2023-03-01T05:17:34;0.70;99.90
47514;DHT22;33951;51.988;5.910;2023-03-01T05:20:00;0.80;99.90
47514;DHT22;33951;51.988;5.910;2023-03-01T05:22:26;0.80;99.90
47514;DHT22;33951;51.988;5.910;2023-03-01T05:24:55;0.70;99.90
47514;DHT22;33951;51.988;5.910;2023-03-01T05:27:20;0.60;99.90
47514;DHT22;33951;51.988;5.910;2023-03-01T05:29:47;0.60;99.90
47514;DHT22;33951;51.988;5.910;2023-03-01T05:32:13;0.70;99.90
47514;DHT22;33951;51.988;5.910;2023-03-01T05:34:42;0.60;99.90
47514;DHT22;33951;51.988;5.910;2023-03-01T05:37:09;0.60;99.90
47514;DHT22;33951;51.988;5.910;2023-03-01T05:39:37;0.60;99.90
47514;DHT22;33951;51.988;5.910;2023-03-01T05:42:03;0.60;99.90
47514;DHT22;33951;51.988;5.910;2023-03-01T05:44:29;0.60;99.90
47514;DHT22;33951;51.988;5.910;2023-03-01T05:46:55;0.70;99.90
47514;DHT22;33951;51.988;5.910;2023-03-01T05:49:22;0.60;99.90
47514;DHT22;33951;51.988;5.910;2023-03-01T05:51:51;0.60;99.90
47514;DHT22;33951;51.988;5.910;2023-03-01T05:54:17;0.60;99.90
47514;DHT22;33951;51.988;5.910;2023-03-01T05:56:44;0.50;99.90
47514;DHT22;33951;51.988;5.910;2023-03-01T05:59:10;0.60;99.90
47514;DHT22;33951;51.988;5.910;2023-03-01T06:01:36;0.60;99.90
47514;DHT22;33951;51.988;5.910;2023-03-01T06:04:03;0.40;99.90
47514;DHT22;33951;51.988;5.910;2023-03-01T06:06:29;0.40;99.90
47514;DHT22;33951;51.988;5.910;2023-03-01T06:08:58;0.50;99.90
47514;DHT22;33951;51.988;5.910;2023-03-01T06:11:24;0.50;99.90
47514;DHT22;33951;51.988;5.910;2023-03-01T06:13:50;0.50;99.90
47514;DHT22;33951;51.988;5.910;2023-03-01T06:16:15;0.60;99.90
47514;DHT22;33951;51.988;5.910;2023-03-01T06:18:41;0.60;99.90
47514;DHT22;33951;51.988;5.910;2023-03-01T06:21:08;0.70;99.90
47514;DHT22;33951;51.988;5.910;2023-03-01T06:23:34;0.60;99.90
47514;DHT22;33951;51.988;5.910;2023-03-01T06:26:00;0.50;99.90
47514;DHT22;33951;51.988;5.910;2023-03-01T06:28:26;0.60;99.90
47514;DHT22;33951;51.988;5.910;2023-03-01T06:30:52;0.60;99.90
47514;DHT22;33951;51.988;5.910;2023-03-01T06:33:18;0.60;99.90
47514;DHT22;33951;51.988;5.910;2023-03-01T06:35:46;0.60;99.90
47514;DHT22;33951;51.988;5.910;2023-03-01T06:38:12;0.70;99.90
47514;DHT22;33951;51.988;5.910;2023-03-01T06:40:40;0.70;99.90
47514;DHT22;33951;51.988;5.910;2023-03-01T06:43:06;0.80;99.90
47514;DHT22;33951;51.988;5.910;2023-03-01T06:45:33;0.80;99.90
47514;DHT22;33951;51.988;5.910;2023-03-01T06:48:06;0.70;99.90
47514;DHT22;33951;51.988;5.910;2023-03-01T06:50:32;0.70;99.90
47514;DHT22;33951;51.988;5.910;2023-03-01T06:52:58;0.60;99.90
47514;DHT22;33951;51.988;5.910;2023-03-01T06:55:24;0.70;99.90
47514;DHT22;33951;51.988;5.910;2023-03-01T06:57:57;0.70;99.90
47514;DHT22;33951;51.988;5.910;2023-03-01T07:00:24;0.80;99.90
47514;DHT22;33951;51.988;5.910;2023-03-01T07:02:50;0.80;99.90
47514;DHT22;33951;51.988;5.910;2023-03-01T07:05:16;0.80;99.90
47514;DHT22;33951;51.988;5.910;2023-03-01T07:07:42;0.80;99.90
47514;DHT22;33951;51.988;5.910;2023-03-01T07:10:08;0.90;99.90
47514;DHT22;33951;51.988;5.910;2023-03-01T07:12:34;0.90;99.90
47514;DHT22;33951;51.988;5.910;2023-03-01T07:14:59;0.80;99.90
47514;DHT22;33951;51.988;5.910;2023-03-01T07:17:25;0.80;99.90
47514;DHT22;33951;51.988;5.910;2023-03-01T07:19:51;0.90;99.90
47514;DHT22;33951;51.988;5.910;2023-03-01T07:22:16;0.90;99.90
47514;DHT22;33951;51.988;5.910;2023-03-01T07:24:43;1.00;99.90
47514;DHT22;33951;51.988;5.910;2023-03-01T07:27:09;1.00;99.90
47514;DHT22;33951;51.988;5.910;2023-03-01T07:29:35;1.00;99.90
47514;DHT22;33951;51.988;5.910;2023-03-01T07:32:02;1.10;99.90
47514;DHT22;33951;51.988;5.910;2023-03-01T07:34:28;1.10;99.90
47514;DHT22;33951;51.988;5.910;2023-03-01T07:36:54;1.20;99.90
47514;DHT22;33951;51.988;5.910;2023-03-01T07:39:19;1.00;99.90
47514;DHT22;33951;51.988;5.910;2023-03-01T07:41:48;1.00;99.90
47514;DHT22;33951;51.988;5.910;2023-03-01T07:44:13;1.20;99.90
47514;DHT22;33951;51.988;5.910;2023-03-01T07:46:41;1.40;99.90
47514;DHT22;33951;51.988;5.910;2023-03-01T07:49:07;1.40;99.90
47514;DHT22;33951;51.988;5.910;2023-03-01T07:51:36;1.40;99.90
47514;DHT22;33951;51.988;5.910;2023-03-01T07:54:07;1.50;99.90
47514;DHT22;33951;51.988;5.910;2023-03-01T07:56:33;1.40;99.90
47514;DHT22;33951;51.988;5.910;2023-03-01T07:58:59;1.50;99.90
47514;DHT22;33951;51.988;5.910;2023-03-01T08:01:34;1.40;99.90
47514;DHT22;33951;51.988;5.910;2023-03-01T08:04:07;1.50;99.90
47514;DHT22;33951;51.988;5.910;2023-03-01T08:06:38;1.70;99.90
47514;DHT22;33951;51.988;5.910;2023-03-01T08:09:15;1.90;99.90
47514;DHT22;33951;51.988;5.910;2023-03-01T08:11:40;2.00;99.90
47514;DHT22;33951;51.988;5.910;2023-03-01T08:14:06;1.90;99.90
47514;DHT22;33951;51.988;5.910;2023-03-01T08:16:35;2.00;99.90
47514;DHT22;33951;51.988;5.910;2023-03-01T08:19:10;1.90;99.90
47514;DHT22;33951;51.988;5.910;2023-03-01T08:21:36;2.00;99.90
47514;DHT22;33951;51.988;5.910;2023-03-01T08:24:05;2.20;99.90
47514;DHT22;33951;51.988;5.910;2023-03-01T08:26:31;2.30;99.90
47514;DHT22;33951;51.988;5.910;2023-03-01T08:28:59;2.40;99.90
47514;DHT22;33951;51.988;5.910;2023-03-01T08:31:35;2.40;99.90
47514;DHT22;33951;51.988;5.910;2023-03-01T08:34:03;2.50;99.90
47514;DHT22;33951;51.988;5.910;2023-03-01T08:36:34;2.60;99.90
47514;DHT22;33951;51.988;5.910;2023-03-01T08:39:04;2.60;99.90
47514;DHT22;33951;51.988;5.910;2023-03-01T08:41:36;2.60;99.90
47514;DHT22;33951;51.988;5.910;2023-03-01T08:44:03;2.80;99.90
47514;DHT22;33951;51.988;5.910;2023-03-01T08:46:42;2.80;99.90
47514;DHT22;33951;51.988;5.910;2023-03-01T08:49:13;3.00;99.90
47514;DHT22;33951;51.988;5.910;2023-03-01T08:51:40;2.90;99.90
47514;DHT22;33951;51.988;5.910;2023-03-01T08:54:09;3.00;99.90
47514;DHT22;33951;51.988;5.910;2023-03-01T08:56:39;3.00;99.90
47514;DHT22;33951;51.988;5.910;2023-03-01T08:59:09;3.10;99.90
47514;DHT22;33951;51.988;5.910;2023-03-01T09:01:40;3.40;99.90
47514;DHT22;33951;51.988;5.910;2023-03-01T09:04:09;3.40;99.90
47514;DHT22;33951;51.988;5.910;2023-03-01T09:06:48;3.50;99.90
47514;DHT22;33951;51.988;5.910;2023-03-01T09:09:18;3.50;99.90
47514;DHT22;33951;51.988;5.910;2023-03-01T09:11:53;3.60;99.90
47514;DHT22;33951;51.988;5.910;2023-03-01T09:14:18;3.70;99.90
47514;DHT22;33951;51.988;5.910;2023-03-01T09:16:47;3.90;99.90
47514;DHT22;33951;51.988;5.910;2023-03-01T09:19:13;4.00;99.90
47514;DHT22;33951;51.988;5.910;2023-03-01T09:21:39;4.00;99.90
47514;DHT22;33951;51.988;5.910;2023-03-01T09:24:06;4.10;99.90
47514;DHT22;33951;51.988;5.910;2023-03-01T09:26:35;4.10;99.90
47514;DHT22;33951;51.988;5.910;2023-03-01T09:29:11;4.20;99.90
47514;DHT22;33951;51.988;5.910;2023-03-01T09:31:47;4.20;99.90
47514;DHT22;33951;51.988;5.910;2023-03-01T09:34:28;4.30;99.90
47514;DHT22;33951;51.988;5.910;2023-03-01T09:36:59;4.40;99.90
47514;DHT22;33951;51.988;5.910;2023-03-01T09:39:25;4.40;99.90
47514;DHT22;33951;51.988;5.910;2023-03-01T09:42:00;4.40;99.90
47514;DHT22;33951;51.988;5.910;2023-03-01T09:44:50;4.60;99.90
47514;DHT22;33951;51.988;5.910;2023-03-01T09:47:26;4.70;99.90
47514;DHT22;33951;51.988;5.910;2023-03-01T09:50:18;4.80;99.90
47514;DHT22;33951;51.988;5.910;2023-03-01T09:55:31;5.00;99.90
47514;DHT22;33951;51.988;5.910;2023-03-01T10:01:31;5.30;99.90
47514;DHT22;33951;51.988;5.910;2023-03-01T10:09:59;5.30;99.90
47514;DHT22;33951;51.988;5.910;2023-03-01T10:12:37;5.40;99.90
47514;DHT22;33951;51.988;5.910;2023-03-01T10:15:07;5.50;99.90
47514;DHT22;33951;51.988;5.910;2023-03-01T10:17:55;5.70;99.90
47514;DHT22;33951;51.988;5.910;2023-03-01T10:20:28;5.90;99.90
47514;DHT22;33951;51.988;5.910;2023-03-01T10:23:04;6.00;99.90
47514;DHT22;33951;51.988;5.910;2023-03-01T10:25:55;6.20;99.90
47514;DHT22;33951;51.988;5.910;2023-03-01T10:28:50;6.40;99.90
47514;DHT22;33951;51.988;5.910;2023-03-01T10:31:25;6.60;99.90
47514;DHT22;33951;51.988;5.910;2023-03-01T10:36:57;7.00;99.90
47514;DHT22;33951;51.988;5.910;2023-03-01T10:39:25;7.20;99.90
47514;DHT22;33951;51.988;5.910;2023-03-01T10:41:55;7.40;99.90
47514;DHT22;33951;51.988;5.910;2023-03-01T10:44:44;7.50;99.90
47514;DHT22;33951;51.988;5.910;2023-03-01T10:47:26;7.70;99.10
47514;DHT22;33951;51.988;5.910;2023-03-01T10:50:03;7.80;98.70
47514;DHT22;33951;51.988;5.910;2023-03-01T10:52:37;7.90;98.60
47514;DHT22;33951;51.988;5.910;2023-03-01T10:55:26;8.00;98.90
47514;DHT22;33951;51.988;5.910;2023-03-01T11:01:01;8.50;97.50
47514;DHT22;33951;51.988;5.910;2023-03-01T11:03:33;8.70;97.70
47514;DHT22;33951;51.988;5.910;2023-03-01T11:08:39;9.10;96.90
47514;DHT22;33951;51.988;5.910;2023-03-01T11:11:19;9.30;96.80
47514;DHT22;33951;51.988;5.910;2023-03-01T11:14:02;9.60;96.00
47514;DHT22;33951;51.988;5.910;2023-03-01T12:31:13;13.10;87.90
47514;DHT22;33951;51.988;5.910;2023-03-01T12:34:01;13.00;88.40
47514;DHT22;33951;51.988;5.910;2023-03-01T12:39:46;13.30;87.60
47514;DHT22;33951;51.988;5.910;2023-03-01T12:45:29;13.30;86.50
47514;DHT22;33951;51.988;5.910;2023-03-01T12:48:19;13.40;86.00
47514;DHT22;33951;51.988;5.910;2023-03-01T12:51:01;13.40;87.60
47514;DHT22;33951;51.988;5.910;2023-03-01T12:53:29;13.50;86.10
47514;DHT22;33951;51.988;5.910;2023-03-01T12:56:06;13.70;84.80
47514;DHT22;33951;51.988;5.910;2023-03-01T13:01:35;13.90;84.00
47514;DHT22;33951;51.988;5.910;2023-03-01T13:10:25;13.80;83.90
47514;DHT22;33951;51.988;5.910;2023-03-01T13:13:02;13.60;82.60
47514;DHT22;33951;51.988;5.910;2023-03-01T13:15:31;13.60;82.70
47514;DHT22;33951;51.988;5.910;2023-03-01T13:18:43;13.60;83.40
47514;DHT22;33951;51.988;5.910;2023-03-01T13:23:24;13.80;82.70
47514;DHT22;33951;51.988;5.910;2023-03-01T13:33:57;13.80;81.70
47514;DHT22;33951;51.988;5.910;2023-03-01T13:39:00;13.70;81.30
47514;DHT22;33951;51.988;5.910;2023-03-01T13:44:28;14.00;81.70
47514;DHT22;33951;51.988;5.910;2023-03-01T13:52:43;14.10;83.20
47514;DHT22;33951;51.988;5.910;2023-03-01T13:57:50;14.30;80.30
47514;DHT22;33951;51.988;5.910;2023-03-01T14:00:27;14.50;79.20
47514;DHT22;33951;51.988;5.910;2023-03-01T14:06:03;14.50;79.20
47514;DHT22;33951;51.988;5.910;2023-03-01T14:08:33;14.40;79.10
47514;DHT22;33951;51.988;5.910;2023-03-01T14:19:28;14.50;80.80
47514;DHT22;33951;51.988;5.910;2023-03-01T14:24:47;14.70;80.00
47514;DHT22;33951;51.988;5.910;2023-03-01T14:27:17;14.80;80.10
47514;DHT22;33951;51.988;5.910;2023-03-01T14:29:43;15.00;79.70
47514;DHT22;33951;51.988;5.910;2023-03-01T14:34:44;15.10;79.70
47514;DHT22;33951;51.988;5.910;2023-03-01T14:37:24;15.20;79.40
47514;DHT22;33951;51.988;5.910;2023-03-01T14:39:50;15.20;78.20
47514;DHT22;33951;51.988;5.910;2023-03-01T14:42:17;15.00;78.70
47514;DHT22;33951;51.988;5.910;2023-03-01T14:44:46;14.80;79.00
47514;DHT22;33951;51.988;5.910;2023-03-01T14:47:16;14.70;79.10
47514;DHT22;33951;51.988;5.910;2023-03-01T14:49:45;14.90;77.90
47514;DHT22;33951;51.988;5.910;2023-03-01T14:52:22;14.90;78.30
47514;DHT22;33951;51.988;5.910;2023-03-01T14:54:50;14.70;78.00
47514;DHT22;33951;51.988;5.910;2023-03-01T14:57:20;14.50;77.20
47514;DHT22;33951;51.988;5.910;2023-03-01T14:59:47;14.40;77.30
47514;DHT22;33951;51.988;5.910;2023-03-01T15:02:21;14.50;77.10
47514;DHT22;33951;51.988;5.910;2023-03-01T15:04:55;14.60;77.10
47514;DHT22;33951;51.988;5.910;2023-03-01T15:07:30;14.30;77.00
47514;DHT22;33951;51.988;5.910;2023-03-01T15:09:59;14.40;78.20
47514;DHT22;33951;51.988;5.910;2023-03-01T15:14:57;14.30;77.50
47514;DHT22;33951;51.988;5.910;2023-03-01T15:17:35;14.30;77.90
47514;DHT22;33951;51.988;5.910;2023-03-01T15:20:13;14.20;77.00
47514;DHT22;33951;51.988;5.910;2023-03-01T15:22:43;14.20;77.80
47514;DHT22;33951;51.988;5.910;2023-03-01T15:25:23;14.20;77.60
47514;DHT22;33951;51.988;5.910;2023-03-01T15:27:51;14.10;77.70
47514;DHT22;33951;51.988;5.910;2023-03-01T15:30:29;13.90;78.10
47514;DHT22;33951;51.988;5.910;2023-03-01T15:35:59;13.70;78.40
47514;DHT22;33951;51.988;5.910;2023-03-01T15:38:37;13.40;78.60
47514;DHT22;33951;51.988;5.910;2023-03-01T15:41:29;13.20;78.70
47514;DHT22;33951;51.988;5.910;2023-03-01T15:43:59;13.10;79.80
47514;DHT22;33951;51.988;5.910;2023-03-01T17:04:11;8.60;86.00
47514;DHT22;33951;51.988;5.910;2023-03-01T17:06:37;8.50;86.60
47514;DHT22;33951;51.988;5.910;2023-03-01T17:09:03;8.30;87.10
47514;DHT22;33951;51.988;5.910;2023-03-01T17:11:28;8.30;87.10
47514;DHT22;33951;51.988;5.910;2023-03-01T17:13:54;8.20;87.60
47514;DHT22;33951;51.988;5.910;2023-03-01T17:16:20;8.10;88.70
47514;DHT22;33951;51.988;5.910;2023-03-01T17:18:48;8.00;88.50
47514;DHT22;33951;51.988;5.910;2023-03-01T17:21:15;7.90;88.80
47514;DHT22;33951;51.988;5.910;2023-03-01T17:23:43;7.90;89.30
47514;DHT22;33951;51.988;5.910;2023-03-01T17:26:09;7.80;89.50
47514;DHT22;33951;51.988;5.910;2023-03-01T17:28:36;7.80;89.60
47514;DHT22;33951;51.988;5.910;2023-03-01T17:31:03;7.70;90.10
47514;DHT22;33951;51.988;5.910;2023-03-01T17:33:30;7.60;90.00
47514;DHT22;33951;51.988;5.910;2023-03-01T17:35:56;7.50;90.30
47514;DHT22;33951;51.988;5.910;2023-03-01T17:38:23;7.40;90.50
47514;DHT22;33951;51.988;5.910;2023-03-01T17:40:48;7.30;90.80
47514;DHT22;33951;51.988;5.910;2023-03-01T17:43:16;7.20;91.00
47514;DHT22;33951;51.988;5.910;2023-03-01T17:45:43;7.10;91.20
47514;DHT22;33951;51.988;5.910;2023-03-01T17:48:12;7.00;91.50
47514;DHT22;33951;51.988;5.910;2023-03-01T17:50:38;6.90;91.70
47514;DHT22;33951;51.988;5.910;2023-03-01T17:53:07;6.80;91.90
47514;DHT22;33951;51.988;5.910;2023-03-01T17:55:41;6.70;92.20
47514;DHT22;33951;51.988;5.910;2023-03-01T17:58:08;6.60;92.50
47514;DHT22;33951;51.988;5.910;2023-03-01T18:00:35;6.60;92.90
47514;DHT22;33951;51.988;5.910;2023-03-01T18:03:01;6.50;93.00
47514;DHT22;33951;51.988;5.910;2023-03-01T18:05:32;6.50;93.30
47514;DHT22;33951;51.988;5.910;2023-03-01T18:07:58;6.40;93.40
47514;DHT22;33951;51.988;5.910;2023-03-01T18:10:24;6.40;93.60
47514;DHT22;33951;51.988;5.910;2023-03-01T18:12:58;6.30;93.80
47514;DHT22;33951;51.988;5.910;2023-03-01T18:15:24;6.20;94.10
47514;DHT22;33951;51.988;5.910;2023-03-01T18:17:50;6.10;94.40
47514;DHT22;33951;51.988;5.910;2023-03-01T18:20:15;6.10;94.40
47514;DHT22;33951;51.988;5.910;2023-03-01T18:22:44;6.00;94.70
47514;DHT22;33951;51.988;5.910;2023-03-01T18:25:10;5.90;94.70
47514;DHT22;33951;51.988;5.910;2023-03-01T18:27:35;5.80;94.90
47514;DHT22;33951;51.988;5.910;2023-03-01T18:30:05;5.80;95.20
47514;DHT22;33951;51.988;5.910;2023-03-01T18:32:30;5.70;95.20
47514;DHT22;33951;51.988;5.910;2023-03-01T18:34:56;5.70;95.30
47514;DHT22;33951;51.988;5.910;2023-03-01T18:37:21;5.60;95.60
47514;DHT22;33951;51.988;5.910;2023-03-01T18:39:50;5.50;95.60
47514;DHT22;33951;51.988;5.910;2023-03-01T18:42:17;5.40;95.80
47514;DHT22;33951;51.988;5.910;2023-03-01T18:44:45;5.40;95.90
47514;DHT22;33951;51.988;5.910;2023-03-01T18:47:20;5.40;96.10
47514;DHT22;33951;51.988;5.910;2023-03-01T18:49:48;5.30;96.20
47514;DHT22;33951;51.988;5.910;2023-03-01T18:52:14;5.20;96.50
47514;DHT22;33951;51.988;5.910;2023-03-01T18:54:40;5.00;96.70
47514;DHT22;33951;51.988;5.910;2023-03-01T18:57:05;5.00;96.80
47514;DHT22;33951;51.988;5.910;2023-03-01T18:59:31;5.00;96.90
47514;DHT22;33951;51.988;5.910;2023-03-01T19:01:56;5.00;97.10
47514;DHT22;33951;51.988;5.910;2023-03-01T19:04:22;4.90;97.30
47514;DHT22;33951;51.988;5.910;2023-03-01T19:06:48;4.80;97.60
47514;DHT22;33951;51.988;5.910;2023-03-01T19:09:13;4.70;97.80
47514;DHT22;33951;51.988;5.910;2023-03-01T19:11:40;4.70;98.10
47514;DHT22;33951;51.988;5.910;2023-03-01T19:14:05;4.70;98.30
47514;DHT22;33951;51.988;5.910;2023-03-01T19:16:32;4.60;98.50
47514;DHT22;33951;51.988;5.910;2023-03-01T19:19:00;4.60;98.80
47514;DHT22;33951;51.988;5.910;2023-03-01T19:21:28;4.60;98.60
47514;DHT22;33951;51.988;5.910;2023-03-01T19:23:58;4.50;99.00
47514;DHT22;33951;51.988;5.910;2023-03-01T19:26:34;4.50;99.00
47514;DHT22;33951;51.988;5.910;2023-03-01T19:28:59;4.60;99.00
47514;DHT22;33951;51.988;5.910;2023-03-01T19:31:57;4.60;99.00
47514;DHT22;33951;51.988;5.910;2023-03-01T19:34:34;4.50;99.30
47514;DHT22;33951;51.988;5.910;2023-03-01T19:37:23;4.50;99.40
47514;DHT22;33951;51.988;5.910;2023-03-01T19:39:52;4.40;99.70
47514;DHT22;33951;51.988;5.910;2023-03-01T19:42:21;4.40;99.80
47514;DHT22;33951;51.988;5.910;2023-03-01T19:44:50;4.50;99.80
47514;DHT22;33951;51.988;5.910;2023-03-01T19:47:22;4.50;99.80
47514;DHT22;33951;51.988;5.910;2023-03-01T19:49:50;4.40;99.90
47514;DHT22;33951;51.988;5.910;2023-03-01T19:52:16;4.30;99.90
47514;DHT22;33951;51.988;5.910;2023-03-01T19:54:44;4.30;99.90
47514;DHT22;33951;51.988;5.910;2023-03-01T19:57:23;4.40;99.90
47514;DHT22;33951;51.988;5.910;2023-03-01T19:59:52;4.40;99.90
47514;DHT22;33951;51.988;5.910;2023-03-01T20:02:17;4.20;99.90
47514;DHT22;33951;51.988;5.910;2023-03-01T20:04:43;4.30;99.90
47514;DHT22;33951;51.988;5.910;2023-03-01T20:07:19;4.30;99.90
47514;DHT22;33951;51.988;5.910;2023-03-01T20:09:44;4.30;99.90
47514;DHT22;33951;51.988;5.910;2023-03-01T20:12:13;4.40;99.90
47514;DHT22;33951;51.988;5.910;2023-03-01T20:14:39;4.30;99.90
47514;DHT22;33951;51.988;5.910;2023-03-01T20:17:32;4.20;99.90
47514;DHT22;33951;51.988;5.910;2023-03-01T20:20:13;4.30;99.90
47514;DHT22;33951;51.988;5.910;2023-03-01T20:22:39;4.30;99.90
47514;DHT22;33951;51.988;5.910;2023-03-01T20:25:08;4.30;99.90
47514;DHT22;33951;51.988;5.910;2023-03-01T20:27:36;4.10;99.90
47514;DHT22;33951;51.988;5.910;2023-03-01T20:30:03;3.90;99.90
47514;DHT22;33951;51.988;5.910;2023-03-01T20:32:32;4.00;99.90
47514;DHT22;33951;51.988;5.910;2023-03-01T20:35:06;4.00;99.90
47514;DHT22;33951;51.988;5.910;2023-03-01T20:37:32;4.10;99.90
47514;DHT22;33951;51.988;5.910;2023-03-01T20:39:59;4.00;99.90
47514;DHT22;33951;51.988;5.910;2023-03-01T20:42:25;4.00;99.90
47514;DHT22;33951;51.988;5.910;2023-03-01T20:44:51;3.90;99.90
47514;DHT22;33951;51.988;5.910;2023-03-01T20:47:17;3.90;99.90
47514;DHT22;33951;51.988;5.910;2023-03-01T20:49:44;3.80;99.90
47514;DHT22;33951;51.988;5.910;2023-03-01T20:52:10;4.00;99.90
47514;DHT22;33951;51.988;5.910;2023-03-01T20:54:36;4.00;99.90
47514;DHT22;33951;51.988;5.910;2023-03-01T20:57:01;3.90;99.90
47514;DHT22;33951;51.988;5.910;2023-03-01T20:59:27;3.90;99.90
47514;DHT22;33951;51.988;5.910;2023-03-01T21:01:53;4.00;99.90
47514;DHT22;33951;51.988;5.910;2023-03-01T21:04:18;4.00;99.90
47514;DHT22;33951;51.988;5.910;2023-03-01T21:06:47;4.00;99.90
47514;DHT22;33951;51.988;5.910;2023-03-01T21:09:13;3.90;99.90
47514;DHT22;33951;51.988;5.910;2023-03-01T21:11:38;3.90;99.90
47514;DHT22;33951;51.988;5.910;2023-03-01T21:14:07;4.00;99.90
47514;DHT22;33951;51.988;5.910;2023-03-01T21:16:36;4.10;99.90
47514;DHT22;33951;51.988;5.910;2023-03-01T21:19:02;4.10;99.90
47514;DHT22;33951;51.988;5.910;2023-03-01T21:21:30;4.00;99.90
47514;DHT22;33951;51.988;5.910;2023-03-01T21:23:56;3.80;99.90
47514;DHT22;33951;51.988;5.910;2023-03-01T21:26:26;4.00;99.90
47514;DHT22;33951;51.988;5.910;2023-03-01T21:28:59;4.00;99.90
47514;DHT22;33951;51.988;5.910;2023-03-01T21:31:33;4.00;99.90
47514;DHT22;33951;51.988;5.910;2023-03-01T21:34:01;3.80;99.90
47514;DHT22;33951;51.988;5.910;2023-03-01T21:36:29;3.80;99.90
47514;DHT22;33951;51.988;5.910;2023-03-01T21:38:55;3.90;99.90
47514;DHT22;33951;51.988;5.910;2023-03-01T21:41:29;3.80;99.90
47514;DHT22;33951;51.988;5.910;2023-03-01T21:43:57;3.70;99.90
47514;DHT22;33951;51.988;5.910;2023-03-01T21:46:26;3.70;99.90
47514;DHT22;33951;51.988;5.910;2023-03-01T21:48:53;3.60;99.90
47514;DHT22;33951;51.988;5.910;2023-03-01T21:51:21;3.60;99.90
47514;DHT22;33951;51.988;5.910;2023-03-01T21:53:47;3.60;99.90
47514;DHT22;33951;51.988;5.910;2023-03-01T21:56:21;3.60;99.90
47514;DHT22;33951;51.988;5.910;2023-03-01T21:58:47;3.70;99.90
47514;DHT22;33951;51.988;5.910;2023-03-01T22:01:16;3.70;99.90
47514;DHT22;33951;51.988;5.910;2023-03-01T22:03:43;3.60;99.90
47514;DHT22;33951;51.988;5.910;2023-03-01T22:06:17;3.50;99.90
47514;DHT22;33951;51.988;5.910;2023-03-01T22:09:02;3.50;99.90
47514;DHT22;33951;51.988;5.910;2023-03-01T22:11:31;3.50;99.90
47514;DHT22;33951;51.988;5.910;2023-03-01T22:13:58;3.50;99.90
47514;DHT22;33951;51.988;5.910;2023-03-01T22:16:27;3.50;99.90
47514;DHT22;33951;51.988;5.910;2023-03-01T22:18:54;3.50;99.90
47514;DHT22;33951;51.988;5.910;2023-03-01T22:21:20;3.50;99.90
47514;DHT22;33951;51.988;5.910;2023-03-01T22:23:47;3.60;99.90
47514;DHT22;33951;51.988;5.910;2023-03-01T22:26:40;3.60;99.90
47514;DHT22;33951;51.988;5.910;2023-03-01T22:29:09;3.60;99.90
47514;DHT22;33951;51.988;5.910;2023-03-01T22:31:35;3.40;99.90
47514;DHT22;33951;51.988;5.910;2023-03-01T22:34:02;3.30;99.90
47514;DHT22;33951;51.988;5.910;2023-03-01T22:36:28;3.40;99.90
47514;DHT22;33951;51.988;5.910;2023-03-01T22:38:57;3.50;99.90
47514;DHT22;33951;51.988;5.910;2023-03-01T22:41:32;3.50;99.90
47514;DHT22;33951;51.988;5.910;2023-03-01T22:43:59;3.40;99.90
47514;DHT22;33951;51.988;5.910;2023-03-01T22:46:26;3.50;99.90
47514;DHT22;33951;51.988;5.910;2023-03-01T22:48:52;3.40;99.90
47514;DHT22;33951;51.988;5.910;2023-03-01T22:51:26;3.40;99.90
47514;DHT22;33951;51.988;5.910;2023-03-01T22:53:53;3.30;99.90
47514;DHT22;33951;51.988;5.910;2023-03-01T22:56:22;3.30;99.90
47514;DHT22;33951;51.988;5.910;2023-03-01T22:58:48;3.30;99.90
47514;DHT22;33951;51.988;5.910;2023-03-01T23:01:16;3.30;99.90
